METAR Data
IDs: Format: Raw Decoded Include TAF

Data at: 0103 UTC 06 Dec 2019

KORH 060054Z 28019G24KT 10SM CLR M02/M10 A2981 RMK AO2 PK WND 28028/0019 SLP109 T10221100
KORH 052354Z 29018G24KT 10SM CLR M02/M10 A2978 RMK AO2 PK WND 28028/2324 SLP098 T10221100 10028 21022 52028
KORH 052254Z 26015G31KT 10SM CLR M01/M10 A2975 RMK AO2 PK WND 25031/2246 SLP087 T10111100
KORH 052154Z 27013G21KT 10SM FEW050 00/M08 A2972 RMK AO2 SLP078 T00001083
KORH 052054Z 27010KT 10SM SCT045 01/M08 A2969 RMK AO2 SLP067 T00061078 53033
KORH 051954Z 29019G24KT 10SM BKN042 01/M07 A2965 RMK AO2 PK WND 29026/1911 SLP053 T00111067
KORH 051854Z 27012G24KT 10SM BKN039 02/M06 A2963 RMK AO2 PK WND 27028/1757 SLP046 T00171061
KORH 051754Z 29020G28KT 10SM CLR 02/M06 A2959 RMK AO2 PK WND 28028/1743 SLP032 T00221056 10028 21028 53005
KORH 051654Z 27018G26KT 10SM CLR 02/M06 A2958 RMK AO2 PK WND 29028/1639 SLP027 T00221056
KORH 051554Z 28020G27KT 10SM CLR 02/M04 A2958 RMK AO2 PK WND 27028/1541 SLP026 T00171039
KORH 051454Z 27013KT 10SM CLR 01/M03 A2958 RMK AO2 SLP027 T00061028 51019
KORH 051354Z 26012KT 10SM CLR M01/M03 A2956 RMK AO2 SLP022 T10061033
KORH 051254Z 27011KT 10SM CLR M02/M04 A2954 RMK AO2 SLP015 T10221039
KORH 051154Z 27012KT 10SM CLR M02/M04 A2952 RMK AO2 SLP009 I6000 T10221039 11011 21028 53020
KORH 051054Z 27011KT 9SM CLR M02/M04 A2950 RMK AO2 SLP000 I1000 T10221039
KORH 050954Z AUTO 26009KT 7SM BKN120 M03/M04 A2948 RMK AO2 SLP994 T10281039
KORH 050854Z AUTO 27010KT 7SM FEW100 M02/M03 A2946 RMK AO2 SLP987 T10221033 51008
KORH 050754Z AUTO 26010KT 6SM BR OVC110 M02/M03 A2945 RMK AO2 SLP984 T10221028
KORH 050654Z AUTO 26010KT 8SM BKN110 M02/M03 A2945 RMK AO2 SLP983 T10171028
KORH 050554Z 27010KT 10SM OVC100 M01/M03 A2943 RMK AO2 SLP978 60000 T10111028 11006 21017 58003
KORH 050454Z 26010KT 9SM FEW075 BKN095 M02/M03 A2944 RMK AO2 SLP981 T10171028 400061039
KORH 050354Z 25010KT 10SM OVC090 M01/M03 A2945 RMK AO2 SLP983 T10111033
KORH 050254Z 26011KT 9SM FEW055 OVC080 M01/M03 A2944 RMK AO2 SNB42E53 SLP982 P0000 60000 T10061033 55003
KORH 050154Z 27012KT 10SM OVC050 M01/M03 A2944 RMK AO2 SLP982 T10061033
KORH 050054Z 26009KT 10SM OVC048 M01/M04 A2945 RMK AO2 SLP986 T10061039
KORH 042354Z 24009KT 10SM OVC045 M01/M03 A2945 RMK AO2 SLP985 T10061033 10006 21006 53007
KORH 042254Z 21008KT 10SM SCT037 OVC045 M01/M04 A2944 RMK AO2 SLP981 T10061039
KORH 042154Z 26003KT 10SM OVC034 00/M04 A2944 RMK AO2 SLP981 T00001039
KORH 042135Z 26004KT 10SM OVC032 00/M04 A2944 RMK AO2 T00001039
KORH 042054Z 26003KT 10SM OVC028 01/M04 A2943 RMK AO2 SLP978 T00061039 55003
KORH 042043Z 25003KT 10SM OVC029 01/M04 A2943 RMK AO2 T00061039
KORH 041954Z 25004KT 10SM OVC030 01/M03 A2943 RMK AO2 SLP976 T00061033
KORH 041854Z 23008KT 10SM OVC028 01/M03 A2942 RMK AO2 SLP976 T00061033
KORH 041836Z 25008KT 10SM BKN028 OVC044 01/M04 A2943 RMK AO2 T00061039
KORH 041754Z 25009KT 10SM OVC046 01/M04 A2944 RMK AO2 SLP981 T00061039 10006 21033 58013
KORH 041654Z 26008KT 10SM SCT041 OVC050 M01/M04 A2946 RMK AO2 SLP988 T10061039
KORH 041554Z 25011KT 10SM OVC046 M01/M04 A2948 RMK AO2 SLP995 T10111039
KORH 041454Z 25011KT 10SM OVC060 M02/M04 A2948 RMK AO2 SLP996 T10171044 51003
KORH 041354Z 25010KT 10SM OVC075 M02/M06 A2948 RMK AO2 SLP995 T10221056